Time;durP1;ratioP1;P1;durP2;ratioP2;P2;SDS_P1;SDS_P2;PMS_P1;PMS_P2;Temp;Humidity;BMP_temperature;BMP_pressure;BME280_temperature;BME280_humidity;BME280_pressure;Samples;Min_cycle;Max_cycle;Signal;HPM_P1;HPM_P2
2022/08/28 06:26:07;;;;;;;;;5.00;4.00;;;;;;;;6367475;22;45458;-95
2022/08/28 06:38:39;;;;;;;;;;;;;;;;;;;;;
2022/08/28 06:41:14;;;;;;;;;6.00;4.00;;;;;;;;6296697;22;46337;-95
2022/08/28 06:43:39;;;;;;;;;3.33;2.33;;;;;;;;6276281;22;45607;-91
2022/08/28 06:46:07;;;;;;;;;5.00;4.00;;;;;;;;6306055;22;45321;-89
2022/08/28 06:48:33;;;;;;;;;4.33;4.00;;;;;;;;6307424;22;45310;-92
2022/08/28 06:50:58;;;;;;;;;6.00;5.00;;;;;;;;6276577;22;48054;-93
2022/08/28 06:53:25;;;;;;;;;3.67;3.67;;;;;;;;6274678;22;45689;-90
2022/08/28 06:55:58;;;;;;;;;3.67;3.67;;;;;;;;6303673;22;45302;-92
2022/08/28 06:58:23;;;;;;;;;6.00;4.67;;;;;;;;6303218;22;45352;-92
2022/08/28 07:00:49;;;;;;;;;4.00;4.00;;;;;;;;6304401;22;46395;-90
2022/08/28 07:03:15;;;;;;;;;3.00;3.00;;;;;;;;6278890;22;45793;-90
2022/08/28 07:05:40;;;;;;;;;6.00;3.33;;;;;;;;6276451;22;45383;-90
2022/08/28 07:08:05;;;;;;;;;3.00;3.00;;;;;;;;6275434;22;45325;-89
2022/08/28 07:10:31;;;;;;;;;5.00;4.67;;;;;;;;6277411;22;47145;-90
2022/08/28 07:12:59;;;;;;;;;4.00;4.00;;;;;;;;6302929;22;45294;-92
2022/08/28 07:15:24;;;;;;;;;5.67;4.33;;;;;;;;6303926;22;45221;-93
2022/08/28 07:17:50;;;;;;;;;5.67;5.33;;;;;;;;6304409;22;45356;-93
2022/08/28 07:20:15;;;;;;;;;6.00;3.67;;;;;;;;6276836;22;47903;-95
2022/08/28 07:22:40;;;;;;;;;5.33;3.67;;;;;;;;6277470;22;45315;-90
2022/08/28 07:25:06;;;;;;;;;4.00;3.67;;;;;;;;6278054;22;45341;-93
2022/08/28 07:27:31;;;;;;;;;3.00;3.00;;;;;;;;6306187;22;45607;-95
2022/08/28 07:29:57;;;;;;;;;6.00;5.00;;;;;;;;6279159;22;46918;-94
2022/08/28 07:32:23;;;;;;;;;2.67;2.67;;;;;;;;6275960;22;45215;-93
2022/08/28 07:34:48;;;;;;;;;3.33;3.00;;;;;;;;6276171;22;45402;-93
2022/08/28 07:37:14;;;;;;;;;6.00;6.00;;;;;;;;6276309;22;45348;-93
2022/08/28 07:39:39;;;;;;;;;4.33;4.33;;;;;;;;6274722;22;48472;-94
2022/08/28 07:42:05;;;;;;;;;4.33;4.33;;;;;;;;6306652;22;45423;-96
2022/08/28 07:44:49;;;;;;;;;5.00;5.00;;;;;;;;6366977;22;45530;-96
2022/08/28 07:47:15;;;;;;;;;5.67;3.67;;;;;;;;6346699;22;45473;-96
2022/08/28 07:49:40;;;;;;;;;5.00;3.67;;;;;;;;6376890;22;46190;-96
2022/08/28 07:52:06;;;;;;;;;6.00;6.00;;;;;;;;6379162;22;45293;-96
2022/08/28 07:54:32;;;;;;;;;6.00;6.00;;;;;;;;6376060;22;44743;-95
2022/08/28 07:56:57;;;;;;;;;4.00;3.00;;;;;;;;6343151;22;45607;-95
2022/08/28 07:59:22;;;;;;;;;4.00;4.00;;;;;;;;6340624;22;46587;-96
2022/08/28 08:01:49;;;;;;;;;6.00;5.00;;;;;;;;6348744;22;45529;-96
2022/08/28 08:04:15;;;;;;;;;5.67;3.67;;;;;;;;6341432;22;45351;-96
2022/08/28 08:06:40;;;;;;;;;4.00;4.00;;;;;;;;6339724;22;45617;-95
2022/08/28 08:09:09;;;;;;;;;6.00;6.00;;;;;;;;6338720;22;47105;-94
2022/08/28 08:11:35;;;;;;;;;4.00;4.00;;;;;;;;6368576;22;45371;-96
2022/08/28 08:14:04;;;;;;;;;4.67;4.67;;;;;;;;6339567;22;45317;-96
2022/08/28 08:16:32;;;;;;;;;4.00;4.00;;;;;;;;6367375;22;45243;-96
2022/08/28 08:18:57;;;;;;;;;6.67;4.67;;;;;;;;6367964;22;45357;-95
2022/08/28 08:21:23;;;;;;;;;6.33;6.00;;;;;;;;6341418;22;45877;-96
2022/08/28 08:23:48;;;;;;;;;5.00;5.00;;;;;;;;6340031;22;45379;-95
2022/08/28 08:26:21;;;;;;;;;5.00;5.00;;;;;;;;6338771;22;45326;-95
2022/08/28 08:28:47;;;;;;;;;6.67;4.33;;;;;;;;6352834;22;47357;-96
2022/08/28 08:31:13;;;;;;;;;8.00;5.67;;;;;;;;6373737;22;45324;-96
2022/08/28 08:33:40;;;;;;;;;7.00;6.00;;;;;;;;6373378;22;45298;-96
2022/08/28 08:36:06;;;;;;;;;5.00;5.00;;;;;;;;6374009;22;45253;-95
2022/08/28 08:38:41;;;;;;;;;6.00;6.00;;;;;;;;6377764;22;46665;-96
2022/08/28 08:46:12;;;;;;;;;5.00;5.00;;;;;;;;6378241;22;46236;-96
2022/08/28 08:48:42;;;;;;;;;5.33;4.33;;;;;;;;6361663;22;46960;-96
2022/08/28 08:51:16;;;;;;;;;5.00;5.00;;;;;;;;6318758;22;45384;-96
2022/08/28 08:53:56;;;;;;;;;4.67;4.00;;;;;;;;6347906;22;44698;-96
2022/08/28 08:56:22;;;;;;;;;6.00;6.00;;;;;;;;6327257;22;45301;-96
2022/08/28 08:58:49;;;;;;;;;4.00;4.00;;;;;;;;6327972;22;46866;-96
2022/08/28 09:01:27;;;;;;;;;4.00;4.00;;;;;;;;6330125;22;45147;-96
2022/08/28 09:04:02;;;;;;;;;4.33;3.00;;;;;;;;6310364;22;46054;-96
2022/08/28 09:06:38;;;;;;;;;5.00;5.00;;;;;;;;6320178;22;45212;-96
2022/08/28 09:09:06;;;;;;;;;8.33;7.00;;;;;;;;6313184;22;47235;-96
2022/08/28 09:11:40;;;;;;;;;8.00;7.00;;;;;;;;6310905;22;45254;-96
2022/08/28 09:14:28;;;;;;;;;4.67;4.67;;;;;;;;6317179;22;45324;-96
2022/08/28 09:16:57;;;;;;;;;5.00;5.00;;;;;;;;6319594;22;45411;-96
2022/08/28 09:19:29;;;;;;;;;7.00;6.00;;;;;;;;6311506;22;47109;-96
2022/08/28 09:21:54;;;;;;;;;6.33;6.33;;;;;;;;6293680;22;46294;-95
2022/08/28 09:24:21;;;;;;;;;5.67;5.67;;;;;;;;6340636;22;45350;-96
2022/08/28 09:26:54;;;;;;;;;5.67;4.67;;;;;;;;6359027;22;44789;-94
2022/08/28 09:37:24;;;;;;;;;6.67;6.00;;;;;;;;6429801;22;44780;-96
2022/08/28 09:40:09;;;;;;;;;5.67;5.00;;;;;;;;6397055;22;47416;-96
2022/08/28 09:45:20;;;;;;;;;10.67;9.33;;;;;;;;6312284;22;45239;-96
2022/08/28 09:47:58;;;;;;;;;9.67;7.67;;;;;;;;6326886;22;44788;-96
2022/08/28 09:50:31;;;;;;;;;10.00;6.67;;;;;;;;6323525;22;45481;-96
2022/08/28 09:53:11;;;;;;;;;9.00;6.67;;;;;;;;6327058;22;45304;-96
2022/08/28 09:55:55;;;;;;;;;6.00;6.00;;;;;;;;6316800;22;45903;-96
2022/08/28 09:58:22;;;;;;;;;7.67;6.00;;;;;;;;6346749;22;45256;-96
2022/08/28 10:01:01;;;;;;;;;7.67;6.33;;;;;;;;6320349;22;47330;-96
2022/08/28 10:06:35;;;;;;;;;7.67;6.67;;;;;;;;6328368;22;44920;-96
2022/08/28 10:09:19;;;;;;;;;9.00;7.33;;;;;;;;6352842;22;45354;-96
2022/08/28 10:43:32;;;;;;;;;9.33;9.33;;;;;;;;6383224;22;45808;-96
2022/08/28 10:46:19;;;;;;;;;12.67;9.67;;;;;;;;6352677;22;45275;-96
2022/08/28 10:48:50;;;;;;;;;16.00;15.33;;;;;;;;6355975;22;45371;-95
2022/08/28 10:51:18;;;;;;;;;16.00;12.67;;;;;;;;6386096;22;44922;-95
2022/08/28 10:53:47;;;;;;;;;13.00;9.00;;;;;;;;6340844;22;47187;-95
2022/08/28 10:56:15;;;;;;;;;7.33;7.00;;;;;;;;6339183;22;45288;-96
2022/08/28 10:58:40;;;;;;;;;9.33;9.33;;;;;;;;6340732;22;45271;-94
2022/08/28 11:01:08;;;;;;;;;6.00;6.00;;;;;;;;6339251;22;45255;-96
2022/08/28 11:03:39;;;;;;;;;10.67;10.67;;;;;;;;6339198;22;48000;-95
2022/08/28 11:06:26;;;;;;;;;8.33;8.00;;;;;;;;6347544;22;45173;-96
2022/08/28 11:09:23;;;;;;;;;15.33;15.33;;;;;;;;6349547;22;45627;-96
2022/08/28 11:11:49;;;;;;;;;9.33;9.33;;;;;;;;6338769;22;45362;-93
2022/08/28 11:14:27;;;;;;;;;7.00;7.00;;;;;;;;6345674;22;47226;-96
2022/08/28 11:16:55;;;;;;;;;10.00;8.67;;;;;;;;6353184;22;45312;-96
2022/08/28 11:19:23;;;;;;;;;7.33;7.33;;;;;;;;6350679;22;45436;-94
2022/08/28 11:21:55;;;;;;;;;10.67;9.00;;;;;;;;6341372;22;45314;-96
2022/08/28 11:24:24;;;;;;;;;7.33;7.33;;;;;;;;6340253;22;47029;-96
2022/08/28 11:27:19;;;;;;;;;7.00;7.00;;;;;;;;6344032;22;45318;-96
2022/08/28 11:29:57;;;;;;;;;11.00;8.00;;;;;;;;6241153;22;45425;-96
2022/08/28 11:32:35;;;;;;;;;7.67;7.00;;;;;;;;6216563;22;45360;-93
2022/08/28 11:35:03;;;;;;;;;8.00;6.67;;;;;;;;6216170;22;47848;-96
2022/08/28 11:37:45;;;;;;;;;6.67;6.00;;;;;;;;6214746;22;46094;-96
2022/08/28 11:40:28;;;;;;;;;6.67;6.33;;;;;;;;6215067;22;45335;-96
2022/08/28 11:43:15;;;;;;;;;7.33;6.33;;;;;;;;6208262;22;45251;-96
2022/08/28 11:45:46;;;;;;;;;7.00;7.00;;;;;;;;6183113;22;47347;-96
2022/08/28 11:48:23;;;;;;;;;6.00;6.00;;;;;;;;6180503;22;45934;-96
2022/08/28 11:51:01;;;;;;;;;7.00;6.00;;;;;;;;6185444;22;45328;-96
2022/08/28 11:53:49;;;;;;;;;6.67;6.67;;;;;;;;6184962;22;45433;-96
2022/08/28 11:56:14;;;;;;;;;8.00;6.00;;;;;;;;6202747;22;47495;-96
2022/08/28 11:59:09;;;;;;;;;5.00;5.00;;;;;;;;6183084;22;45309;-96
2022/08/28 12:01:34;;;;;;;;;5.67;5.33;;;;;;;;6157669;23;45275;-96
2022/08/28 12:04:02;;;;;;;;;7.00;6.00;;;;;;;;6138647;23;45508;-96
2022/08/28 12:06:43;;;;;;;;;8.00;7.00;;;;;;;;6190463;22;47798;-96
2022/08/28 12:09:08;;;;;;;;;5.67;5.67;;;;;;;;6226967;22;45313;-96
2022/08/28 12:11:40;;;;;;;;;7.00;5.00;;;;;;;;6217594;22;45711;-96
2022/08/28 12:14:09;;;;;;;;;5.00;5.00;;;;;;;;6218073;22;45499;-96
2022/08/28 12:16:53;;;;;;;;;5.00;5.00;;;;;;;;6224490;22;47321;-96
2022/08/28 12:19:27;;;;;;;;;6.67;6.67;;;;;;;;6221011;22;46293;-96
2022/08/28 12:21:53;;;;;;;;;7.67;6.33;;;;;;;;6219506;22;45409;-96
2022/08/28 12:24:20;;;;;;;;;5.00;5.00;;;;;;;;6217380;22;45327;-96
2022/08/28 12:26:48;;;;;;;;;5.00;5.00;;;;;;;;6217157;22;47680;-96
2022/08/28 12:29:23;;;;;;;;;8.33;6.00;;;;;;;;6221909;22;45820;-96
2022/08/28 12:34:50;;;;;;;;;9.00;9.00;;;;;;;;6249196;22;45286;-96
2022/08/28 12:37:19;;;;;;;;;10.67;7.00;;;;;;;;6234480;22;45699;-95
2022/08/28 12:39:44;;;;;;;;;6.00;6.00;;;;;;;;6302621;22;45292;-95
2022/08/28 12:42:15;;;;;;;;;9.00;7.00;;;;;;;;6311625;22;45514;-95
2022/08/28 12:44:41;;;;;;;;;6.00;5.33;;;;;;;;6349987;22;45494;-96
2022/08/28 12:47:06;;;;;;;;;7.00;7.00;;;;;;;;6346043;22;47104;-96
2022/08/28 12:49:33;;;;;;;;;5.33;5.33;;;;;;;;6352078;22;44767;-96
2022/08/28 12:52:09;;;;;;;;;7.33;5.33;;;;;;;;6344197;22;45210;-96
2022/08/28 12:54:35;;;;;;;;;8.00;6.00;;;;;;;;6341377;22;45380;-96
2022/08/28 12:57:03;;;;;;;;;5.00;5.00;;;;;;;;6347134;22;48421;-96
2022/08/28 12:59:35;;;;;;;;;6.67;5.33;;;;;;;;6353505;22;44977;-96
2022/08/28 13:02:01;;;;;;;;;7.67;7.67;;;;;;;;6351526;22;45251;-96
2022/08/28 13:04:32;;;;;;;;;7.67;6.33;;;;;;;;6352614;22;45162;-94
2022/08/28 13:07:06;;;;;;;;;5.67;5.67;;;;;;;;6348412;22;47188;-96
2022/08/28 13:09:32;;;;;;;;;6.00;6.00;;;;;;;;6315020;22;45325;-96
2022/08/28 13:12:00;;;;;;;;;5.00;5.00;;;;;;;;6348588;22;45335;-96
2022/08/28 13:14:35;;;;;;;;;5.00;4.67;;;;;;;;6347039;22;45283;-96
2022/08/28 13:17:00;;;;;;;;;6.00;6.00;;;;;;;;6347456;22;47909;-96
2022/08/28 13:19:27;;;;;;;;;4.67;4.67;;;;;;;;6349987;22;45270;-96
2022/08/28 13:21:57;;;;;;;;;6.00;6.00;;;;;;;;6352961;22;45427;-96
2022/08/28 13:24:25;;;;;;;;;5.00;5.00;;;;;;;;6351471;22;45287;-96
2022/08/28 13:27:02;;;;;;;;;5.33;5.33;;;;;;;;6350573;22;47704;-96
2022/08/28 13:29:28;;;;;;;;;5.67;5.67;;;;;;;;6344687;22;45316;-96
2022/08/28 13:31:55;;;;;;;;;4.00;4.00;;;;;;;;6347062;22;45229;-96
2022/08/28 13:34:24;;;;;;;;;5.33;5.00;;;;;;;;6339391;22;45749;-91
2022/08/28 13:36:53;;;;;;;;;6.33;6.33;;;;;;;;6346179;22;47309;-96
2022/08/28 13:39:21;;;;;;;;;5.67;5.67;;;;;;;;6340590;22;45703;-96
2022/08/28 13:41:57;;;;;;;;;5.00;5.00;;;;;;;;6348238;22;45431;-96
2022/08/28 13:44:42;;;;;;;;;9.00;5.00;;;;;;;;6320897;22;45233;-96
2022/08/28 13:47:12;;;;;;;;;6.00;6.00;;;;;;;;6325082;22;45283;-96
2022/08/28 13:49:37;;;;;;;;;6.00;6.00;;;;;;;;6316934;22;45409;-96
2022/08/28 13:52:04;;;;;;;;;6.00;6.00;;;;;;;;6320920;22;44821;-96
2022/08/28 13:54:49;;;;;;;;;6.67;6.00;;;;;;;;6325671;22;45540;-96
2022/08/28 13:57:16;;;;;;;;;5.00;5.00;;;;;;;;6322339;22;46724;-96
2022/08/28 13:59:42;;;;;;;;;5.00;5.00;;;;;;;;6313435;22;45814;-96
2022/08/28 14:04:56;;;;;;;;;4.33;4.33;;;;;;;;6319361;22;45237;-96
2022/08/28 14:07:28;;;;;;;;;5.00;5.00;;;;;;;;6293429;22;48100;-96
2022/08/28 14:12:45;;;;;;;;;7.00;7.00;;;;;;;;6276997;22;45438;-94
2022/08/28 14:15:10;;;;;;;;;5.00;5.00;;;;;;;;6249484;22;45537;-95
2022/08/28 14:17:36;;;;;;;;;4.33;4.33;;;;;;;;6247271;22;47595;-95
2022/08/28 14:20:05;;;;;;;;;5.00;5.00;;;;;;;;6257055;22;45120;-96
2022/08/28 14:22:35;;;;;;;;;6.67;6.67;;;;;;;;6250909;22;45409;-96
2022/08/28 14:25:01;;;;;;;;;5.67;5.67;;;;;;;;6248202;22;45777;-92
2022/08/28 14:27:27;;;;;;;;;5.00;4.33;;;;;;;;6246277;22;48316;-95
2022/08/28 14:29:52;;;;;;;;;4.00;3.00;;;;;;;;6273372;22;45571;-95
2022/08/28 14:32:18;;;;;;;;;4.00;4.00;;;;;;;;6275921;22;45363;-93
2022/08/28 14:34:43;;;;;;;;;5.00;4.67;;;;;;;;6250770;22;45282;-94
2022/08/28 14:37:09;;;;;;;;;6.00;6.00;;;;;;;;6246611;22;47844;-96
2022/08/28 14:39:36;;;;;;;;;5.00;5.00;;;;;;;;6243745;22;45833;-96
2022/08/28 14:42:03;;;;;;;;;3.67;3.67;;;;;;;;6250547;22;45302;-96
2022/08/28 14:44:28;;;;;;;;;6.33;6.33;;;;;;;;6269682;22;45511;-94
2022/08/28 14:46:53;;;;;;;;;7.00;5.00;;;;;;;;6267570;22;48678;-95
2022/08/28 14:49:19;;;;;;;;;5.33;4.00;;;;;;;;6290710;22;45277;-96
2022/08/28 14:51:45;;;;;;;;;5.00;5.00;;;;;;;;6367498;22;45335;-94
2022/08/28 14:54:11;;;;;;;;;5.67;5.00;;;;;;;;6336899;22;45469;-94
2022/08/28 14:56:37;;;;;;;;;4.67;4.67;;;;;;;;6365594;22;45613;-92
2022/08/28 14:59:03;;;;;;;;;5.67;5.67;;;;;;;;6363643;22;45219;-93
2022/08/28 15:01:36;;;;;;;;;5.00;5.00;;;;;;;;6340381;22;45284;-94
2022/08/28 15:04:02;;;;;;;;;5.00;5.00;;;;;;;;6366485;22;45376;-94
2022/08/28 15:06:28;;;;;;;;;3.67;3.67;;;;;;;;6365452;22;46409;-90
2022/08/28 15:08:53;;;;;;;;;5.00;5.00;;;;;;;;6368285;22;45258;-93
2022/08/28 15:11:19;;;;;;;;;5.00;5.00;;;;;;;;6339458;22;45287;-92
2022/08/28 15:13:45;;;;;;;;;6.00;5.00;;;;;;;;6366088;22;45289;-91
2022/08/28 15:16:15;;;;;;;;;6.67;6.00;;;;;;;;6339574;22;48260;-91
2022/08/28 15:18:41;;;;;;;;;5.67;5.67;;;;;;;;6339784;22;45351;-92
2022/08/28 15:21:13;;;;;;;;;6.33;6.00;;;;;;;;6366623;22;45304;-91
2022/08/28 15:23:38;;;;;;;;;5.00;5.00;;;;;;;;6334071;22;45390;-92
2022/08/28 15:26:03;;;;;;;;;7.33;6.00;;;;;;;;6364478;22;45380;-96
2022/08/28 15:28:28;;;;;;;;;4.33;4.33;;;;;;;;6340172;22;45319;-93
2022/08/28 15:30:54;;;;;;;;;4.00;4.00;;;;;;;;6338310;22;45480;-91
2022/08/28 15:33:19;;;;;;;;;5.67;5.67;;;;;;;;6366988;22;45342;-94
2022/08/28 15:35:44;;;;;;;;;6.67;5.00;;;;;;;;6338692;22;46836;-93
2022/08/28 15:38:09;;;;;;;;;5.33;5.33;;;;;;;;6339051;22;45425;-92
2022/08/28 15:43:19;;;;;;;;;6.00;6.00;;;;;;;;6366447;22;45370;-94
2022/08/28 15:45:44;;;;;;;;;6.33;5.00;;;;;;;;6337589;22;47872;-93
2022/08/28 15:48:10;;;;;;;;;7.00;5.67;;;;;;;;6338925;22;45454;-93
2022/08/28 15:50:35;;;;;;;;;5.00;4.33;;;;;;;;6338707;22;45422;-96
2022/08/28 15:53:01;;;;;;;;;3.00;3.00;;;;;;;;6340673;22;45518;-96
2022/08/28 15:55:26;;;;;;;;;3.33;3.00;;;;;;;;6339417;22;47167;-96
2022/08/28 15:57:51;;;;;;;;;6.00;4.33;;;;;;;;6353534;22;46028;-96
2022/08/28 16:00:24;;;;;;;;;6.33;5.00;;;;;;;;6345252;22;45563;-96
2022/08/28 16:02:50;;;;;;;;;4.00;4.00;;;;;;;;6356979;22;45288;-96
2022/08/28 16:05:16;;;;;;;;;4.00;4.00;;;;;;;;6352990;22;47986;-96
2022/08/28 16:07:41;;;;;;;;;5.33;5.00;;;;;;;;6335398;22;45420;-93
2022/08/28 16:10:07;;;;;;;;;7.00;5.67;;;;;;;;6332641;22;45290;-94
2022/08/28 16:12:33;;;;;;;;;5.00;5.00;;;;;;;;6335081;22;45337;-92
2022/08/28 16:14:58;;;;;;;;;6.33;5.33;;;;;;;;6334198;22;45509;-94
2022/08/28 16:17:23;;;;;;;;;3.00;3.00;;;;;;;;6333999;22;45733;-93
2022/08/28 16:19:48;;;;;;;;;5.00;5.00;;;;;;;;6335590;22;45253;-93
2022/08/28 16:22:15;;;;;;;;;8.67;6.33;;;;;;;;6333820;22;45281;-94
2022/08/28 16:24:41;;;;;;;;;4.67;4.67;;;;;;;;6331574;22;47071;-92
2022/08/28 16:27:06;;;;;;;;;3.33;3.33;;;;;;;;6334390;22;45347;-93
2022/08/28 16:29:31;;;;;;;;;5.33;4.33;;;;;;;;6332048;22;45411;-91
2022/08/28 16:31:57;;;;;;;;;6.00;6.00;;;;;;;;6332862;22;45384;-93
2022/08/28 16:34:22;;;;;;;;;4.00;4.00;;;;;;;;6332704;22;47509;-93
2022/08/28 16:36:48;;;;;;;;;4.00;4.00;;;;;;;;6333454;22;45217;-93
2022/08/28 16:39:14;;;;;;;;;3.00;3.00;;;;;;;;6331045;22;45403;-90
2022/08/28 16:41:40;;;;;;;;;4.00;4.00;;;;;;;;6365742;22;45370;-90
2022/08/28 16:44:05;;;;;;;;;4.00;4.00;;;;;;;;6365444;22;45383;-91
2022/08/28 16:46:30;;;;;;;;;4.33;4.33;;;;;;;;6337228;22;45601;-89
2022/08/28 16:48:55;;;;;;;;;6.00;6.00;;;;;;;;6337145;22;45403;-88
2022/08/28 16:51:25;;;;;;;;;4.67;4.67;;;;;;;;6338055;22;45392;-88
2022/08/28 16:53:50;;;;;;;;;6.67;5.67;;;;;;;;6336718;22;48331;-89
2022/08/28 16:56:16;;;;;;;;;5.00;4.33;;;;;;;;6336687;22;45276;-89
2022/08/28 16:58:42;;;;;;;;;5.33;5.33;;;;;;;;6336742;22;45596;-89
2022/08/28 17:01:07;;;;;;;;;5.33;5.33;;;;;;;;6337148;22;45808;-88
2022/08/28 17:03:33;;;;;;;;;4.00;4.00;;;;;;;;6337783;22;47626;-89
2022/08/28 17:06:01;;;;;;;;;5.00;4.67;;;;;;;;6336721;22;45922;-89
2022/08/28 17:08:27;;;;;;;;;3.00;3.00;;;;;;;;6364846;22;45399;-89
2022/08/28 17:10:52;;;;;;;;;6.33;6.33;;;;;;;;6365011;22;45362;-89
2022/08/28 17:13:17;;;;;;;;;6.00;5.67;;;;;;;;6365954;22;46018;-88
2022/08/28 17:15:43;;;;;;;;;5.67;5.33;;;;;;;;6336374;22;45400;-90
2022/08/28 17:18:08;;;;;;;;;6.67;5.33;;;;;;;;6365919;22;45406;-89
2022/08/28 17:23:17;;;;;;;;;6.00;6.00;;;;;;;;6365454;22;45448;-92
2022/08/28 17:25:42;;;;;;;;;3.67;3.67;;;;;;;;6339910;22;45425;-91
2022/08/28 17:28:08;;;;;;;;;5.00;4.00;;;;;;;;6340909;22;45389;-93
2022/08/28 17:30:33;;;;;;;;;4.67;4.00;;;;;;;;6337865;22;45527;-90
2022/08/28 17:32:58;;;;;;;;;4.67;4.67;;;;;;;;6338016;22;46180;-91
2022/08/28 17:35:24;;;;;;;;;5.00;5.00;;;;;;;;6335303;22;45302;-90
2022/08/28 17:37:52;;;;;;;;;6.00;5.00;;;;;;;;6334987;22;45294;-91
2022/08/28 17:40:18;;;;;;;;;7.00;5.00;;;;;;;;6336958;22;45381;-91
2022/08/28 17:42:44;;;;;;;;;4.33;4.33;;;;;;;;6331978;22;47048;-92
2022/08/28 17:45:10;;;;;;;;;4.00;4.00;;;;;;;;6334297;22;45822;-92
2022/08/28 17:47:35;;;;;;;;;5.67;5.67;;;;;;;;6337930;22;45334;-90
2022/08/28 17:50:01;;;;;;;;;5.67;5.00;;;;;;;;6337629;22;45533;-92
2022/08/28 17:52:27;;;;;;;;;3.00;3.00;;;;;;;;6336515;22;47041;-88
2022/08/28 17:54:52;;;;;;;;;6.00;4.00;;;;;;;;6363548;22;45366;-88
2022/08/28 17:57:17;;;;;;;;;5.00;4.67;;;;;;;;6364643;22;45433;-91
2022/08/28 17:59:42;;;;;;;;;5.00;5.00;;;;;;;;6364380;22;45660;-89
2022/08/28 18:02:08;;;;;;;;;5.67;5.00;;;;;;;;6337473;22;47130;-92
2022/08/28 18:04:34;;;;;;;;;6.00;6.00;;;;;;;;6366874;22;45379;-90
2022/08/28 18:07:00;;;;;;;;;6.33;5.33;;;;;;;;6338196;22;45707;-90
2022/08/28 18:09:26;;;;;;;;;5.00;5.00;;;;;;;;6364952;22;45318;-87
2022/08/28 18:11:51;;;;;;;;;6.33;6.00;;;;;;;;6365415;22;45459;-89
2022/08/28 18:14:17;;;;;;;;;6.33;6.33;;;;;;;;6339770;22;45590;-90
2022/08/28 18:16:42;;;;;;;;;7.00;5.33;;;;;;;;6342947;22;45388;-96
2022/08/28 18:19:08;;;;;;;;;5.33;5.33;;;;;;;;6338222;22;45264;-91
2022/08/28 18:21:34;;;;;;;;;5.00;5.00;;;;;;;;6342757;22;48283;-94
2022/08/28 18:23:59;;;;;;;;;7.00;5.00;;;;;;;;6346079;22;45252;-92
2022/08/28 18:26:24;;;;;;;;;5.33;5.33;;;;;;;;6374543;22;45336;-91
2022/08/28 18:28:50;;;;;;;;;6.00;6.00;;;;;;;;6338329;22;45291;-96
2022/08/28 18:31:16;;;;;;;;;7.33;5.67;;;;;;;;6343393;22;48298;-93
2022/08/28 18:33:41;;;;;;;;;8.67;7.00;;;;;;;;6337498;22;45702;-88
2022/08/28 18:36:07;;;;;;;;;6.67;5.33;;;;;;;;6368711;22;45384;-96
2022/08/28 18:38:34;;;;;;;;;6.33;5.00;;;;;;;;6341178;22;45502;-94
2022/08/28 18:40:59;;;;;;;;;6.00;5.33;;;;;;;;6339878;22;47023;-92
2022/08/28 18:43:25;;;;;;;;;6.00;6.00;;;;;;;;6338904;22;45435;-92
2022/08/28 18:45:50;;;;;;;;;5.33;5.33;;;;;;;;6338219;22;45241;-94
2022/08/28 18:48:15;;;;;;;;;5.00;5.00;;;;;;;;6339810;22;45398;-95
2022/08/28 18:50:40;;;;;;;;;5.33;5.33;;;;;;;;6314500;22;46969;-92
2022/08/28 18:53:06;;;;;;;;;6.00;4.00;;;;;;;;6339009;22;45367;-95
2022/08/28 18:55:31;;;;;;;;;5.33;5.33;;;;;;;;6339748;22;45336;-94
2022/08/28 18:57:58;;;;;;;;;8.33;6.00;;;;;;;;6340720;22;45262;-96
2022/08/28 19:00:23;;;;;;;;;6.33;5.00;;;;;;;;6336066;22;47352;-91
2022/08/28 19:02:49;;;;;;;;;6.00;6.00;;;;;;;;6365966;22;45730;-92
2022/08/28 19:05:14;;;;;;;;;5.67;5.67;;;;;;;;6369610;22;45326;-93
2022/08/28 19:07:40;;;;;;;;;7.00;6.00;;;;;;;;6337366;22;45699;-93
2022/08/28 19:10:06;;;;;;;;;6.33;6.00;;;;;;;;6337000;22;47323;-90
2022/08/28 19:12:32;;;;;;;;;6.33;6.00;;;;;;;;6339084;22;45824;-92
2022/08/28 19:14:59;;;;;;;;;4.67;4.67;;;;;;;;6339195;22;45362;-93
2022/08/28 19:17:25;;;;;;;;;7.00;5.00;;;;;;;;6337117;22;44842;-94
2022/08/28 19:19:50;;;;;;;;;5.00;5.00;;;;;;;;6338090;22;46652;-92
2022/08/28 19:22:15;;;;;;;;;5.00;5.00;;;;;;;;6365408;22;45377;-94
2022/08/28 19:24:41;;;;;;;;;6.00;6.00;;;;;;;;6364569;22;45418;-93
2022/08/28 19:27:06;;;;;;;;;7.00;7.00;;;;;;;;6337512;22;45377;-92
2022/08/28 19:29:31;;;;;;;;;7.33;7.33;;;;;;;;6364338;22;46070;-93
2022/08/28 19:31:57;;;;;;;;;4.67;4.67;;;;;;;;6334800;22;45654;-91
2022/08/28 19:34:22;;;;;;;;;6.00;5.33;;;;;;;;6363483;22;45219;-90
2022/08/28 19:36:47;;;;;;;;;5.33;5.33;;;;;;;;6335030;22;45264;-92
2022/08/28 19:39:13;;;;;;;;;5.00;5.00;;;;;;;;6338870;22;47269;-90
2022/08/28 19:41:39;;;;;;;;;5.00;4.00;;;;;;;;6342066;22;45359;-91
2022/08/28 19:44:05;;;;;;;;;2.33;2.33;;;;;;;;6341527;22;45357;-92
2022/08/28 19:46:34;;;;;;;;;4.00;4.00;;;;;;;;6347054;22;45315;-92
2022/08/28 19:49:02;;;;;;;;;3.00;3.00;;;;;;;;6350402;22;47067;-92
2022/08/28 19:51:28;;;;;;;;;5.33;3.00;;;;;;;;6346495;22;45353;-94
2022/08/28 19:53:54;;;;;;;;;3.33;3.33;;;;;;;;6341307;22;45410;-91
2022/08/28 19:56:26;;;;;;;;;6.00;3.00;;;;;;;;6345615;22;45740;-91
2022/08/28 19:58:52;;;;;;;;;3.00;3.00;;;;;;;;6343551;22;47143;-91
2022/08/28 20:01:19;;;;;;;;;3.67;3.00;;;;;;;;6350971;22;45289;-91
2022/08/28 20:03:45;;;;;;;;;2.67;2.00;;;;;;;;6379900;22;45331;-90
2022/08/28 20:06:10;;;;;;;;;3.33;2.33;;;;;;;;6340659;22;45366;-92
2022/08/28 20:08:35;;;;;;;;;2.67;2.67;;;;;;;;6366448;22;45573;-92
2022/08/28 20:11:01;;;;;;;;;4.00;2.00;;;;;;;;6366855;22;45312;-92
2022/08/28 20:13:26;;;;;;;;;2.33;2.33;;;;;;;;6338554;22;45252;-91
2022/08/28 20:15:52;;;;;;;;;3.00;3.00;;;;;;;;6364355;22;45462;-92
2022/08/28 20:18:18;;;;;;;;;4.33;3.00;;;;;;;;6338139;22;47845;-93
2022/08/28 20:20:45;;;;;;;;;3.00;2.67;;;;;;;;6336858;22;45354;-93
2022/08/28 20:23:10;;;;;;;;;3.00;3.00;;;;;;;;6336550;22;45404;-93
2022/08/28 20:25:35;;;;;;;;;5.00;4.00;;;;;;;;6336442;22;45197;-93
2022/08/28 20:28:00;;;;;;;;;2.33;2.00;;;;;;;;6366185;22;46271;-94
2022/08/28 20:30:26;;;;;;;;;5.67;3.00;;;;;;;;6336623;22;45186;-93
2022/08/28 20:32:51;;;;;;;;;2.67;2.67;;;;;;;;6337423;22;45379;-94
2022/08/28 20:35:17;;;;;;;;;2.67;2.00;;;;;;;;6365573;22;45221;-94
2022/08/28 20:37:44;;;;;;;;;2.00;2.00;;;;;;;;6348949;22;47222;-93
2022/08/28 20:40:09;;;;;;;;;2.00;1.00;;;;;;;;6350073;22;45571;-93
2022/08/28 20:42:34;;;;;;;;;3.67;3.67;;;;;;;;6365509;22;45626;-93
2022/08/28 20:45:01;;;;;;;;;4.67;2.67;;;;;;;;6337094;22;45586;-93
2022/08/28 20:47:27;;;;;;;;;2.67;2.67;;;;;;;;6337569;22;47436;-94
2022/08/28 20:49:52;;;;;;;;;4.00;2.00;;;;;;;;6338529;22;45464;-93
2022/08/28 20:52:17;;;;;;;;;2.33;2.33;;;;;;;;6337453;22;45614;-93
2022/08/28 20:54:43;;;;;;;;;2.67;2.67;;;;;;;;6337161;22;45418;-94
2022/08/28 20:57:09;;;;;;;;;4.33;2.33;;;;;;;;6337199;22;46991;-93
2022/08/28 20:59:35;;;;;;;;;4.33;4.00;;;;;;;;6337722;22;46231;-93
2022/08/28 21:02:00;;;;;;;;;5.00;2.00;;;;;;;;6366172;22;45428;-94
2022/08/28 21:04:29;;;;;;;;;3.00;2.00;;;;;;;;6337880;22;45360;-94
2022/08/28 21:06:55;;;;;;;;;2.00;2.00;;;;;;;;6337905;22;47456;-94
2022/08/28 21:09:21;;;;;;;;;3.67;3.67;;;;;;;;6340180;22;45605;-94
2022/08/28 21:11:48;;;;;;;;;2.00;2.00;;;;;;;;6343678;22;45332;-93
2022/08/28 21:14:13;;;;;;;;;2.33;1.33;;;;;;;;6367718;22;45371;-93
2022/08/28 21:16:39;;;;;;;;;2.33;1.33;;;;;;;;6338054;22;47246;-93
2022/08/28 21:19:04;;;;;;;;;3.33;1.33;;;;;;;;6339246;22;45374;-93
2022/08/28 21:21:30;;;;;;;;;2.67;2.67;;;;;;;;6338678;22;45291;-94
2022/08/28 21:23:56;;;;;;;;;2.33;2.33;;;;;;;;6338200;22;45681;-94
2022/08/28 21:26:21;;;;;;;;;2.67;2.67;;;;;;;;6338731;22;47194;-94
2022/08/28 21:28:46;;;;;;;;;2.00;2.00;;;;;;;;6339325;22;45365;-94
2022/08/28 21:31:12;;;;;;;;;3.33;2.33;;;;;;;;6339562;22;45327;-94
2022/08/28 21:33:38;;;;;;;;;1.00;1.00;;;;;;;;6338978;22;45492;-94
2022/08/28 21:36:11;;;;;;;;;1.67;1.67;;;;;;;;6338315;22;48240;-94
2022/08/28 21:38:37;;;;;;;;;2.33;2.33;;;;;;;;6337363;22;45883;-95
2022/08/28 21:41:08;;;;;;;;;2.00;2.00;;;;;;;;6337688;22;45441;-93
2022/08/28 21:43:34;;;;;;;;;4.00;2.67;;;;;;;;6338967;22;45551;-94
2022/08/28 21:46:00;;;;;;;;;1.33;1.33;;;;;;;;6338133;22;47043;-94
2022/08/28 21:48:28;;;;;;;;;2.00;2.00;;;;;;;;6367008;22;45418;-95
2022/08/28 21:50:53;;;;;;;;;2.33;1.33;;;;;;;;6339242;22;45279;-95
2022/08/28 21:53:18;;;;;;;;;2.00;2.00;;;;;;;;6366882;22;45616;-94
2022/08/28 21:55:53;;;;;;;;;1.67;1.33;;;;;;;;6337662;22;46727;-93
2022/08/28 21:58:19;;;;;;;;;1.67;1.33;;;;;;;;6339030;22;45972;-94
2022/08/28 22:00:45;;;;;;;;;4.33;2.67;;;;;;;;6338172;22;45312;-93
2022/08/28 22:03:11;;;;;;;;;2.00;2.00;;;;;;;;6338825;22;45393;-95
2022/08/28 22:05:37;;;;;;;;;5.00;2.00;;;;;;;;6338325;22;46941;-95
2022/08/28 22:08:03;;;;;;;;;0.00;0.00;;;;;;;;6338977;22;45456;-95
2022/08/28 22:10:29;;;;;;;;;2.00;1.67;;;;;;;;6338545;22;45337;-94
2022/08/28 22:12:54;;;;;;;;;2.00;1.00;;;;;;;;6338601;22;45907;-94
2022/08/28 22:15:19;;;;;;;;;0.00;0.00;;;;;;;;6337779;22;47353;-95
2022/08/28 22:17:44;;;;;;;;;2.00;2.00;;;;;;;;6338925;22;45729;-95
2022/08/28 22:20:21;;;;;;;;;1.33;1.00;;;;;;;;6339239;22;45224;-95
2022/08/28 22:25:31;;;;;;;;;2.00;1.00;;;;;;;;6367066;22;45325;-93
2022/08/28 22:27:56;;;;;;;;;2.67;2.67;;;;;;;;6338660;22;45789;-96
2022/08/28 22:30:21;;;;;;;;;5.00;2.00;;;;;;;;6338082;22;45277;-95